Time;durP1;ratioP1;P1;durP2;ratioP2;P2;SDS_P1;SDS_P2;PMS_P1;PMS_P2;Temp;Humidity;BMP_temperature;BMP_pressure;BME280_temperature;BME280_humidity;BME280_pressure;Samples;Min_cycle;Max_cycle;Signal;HPM_P1;HPM_P2
2023/03/10 00:01:53;;;;;;;9.50;8.50;;;;;;;;;;5011474;28;20181;-88
2023/03/10 00:04:19;;;;;;;10.13;8.50;;;;;;;;;;5002154;28;20294;-88
2023/03/10 00:06:45;;;;;;;9.43;8.37;;;;;;;;;;5002056;28;20184;-88
2023/03/10 00:09:11;;;;;;;11.73;8.63;;;;;;;;;;4987088;28;20216;-87
2023/03/10 00:11:37;;;;;;;9.80;8.23;;;;;;;;;;4986015;28;20201;-88
2023/03/10 00:14:06;;;;;;;8.57;7.67;;;;;;;;;;5003162;28;20186;-88
2023/03/10 00:16:32;;;;;;;11.33;8.10;;;;;;;;;;5003656;28;20228;-88
2023/03/10 00:18:58;;;;;;;9.03;7.73;;;;;;;;;;5006875;28;20185;-88
2023/03/10 00:21:28;;;;;;;12.37;8.77;;;;;;;;;;5005603;28;20178;-88
2023/03/10 00:23:55;;;;;;;11.93;7.77;;;;;;;;;;5015728;28;20209;-88
2023/03/10 00:26:21;;;;;;;10.10;8.00;;;;;;;;;;5015778;28;20181;-89
2023/03/10 00:28:50;;;;;;;10.30;7.97;;;;;;;;;;5015702;28;20209;-88
2023/03/10 00:31:18;;;;;;;10.00;8.27;;;;;;;;;;5013106;28;20173;-89
2023/03/10 00:33:44;;;;;;;9.47;8.43;;;;;;;;;;5007263;28;20182;-88
2023/03/10 00:36:15;;;;;;;10.97;8.83;;;;;;;;;;5005206;28;20178;-88
2023/03/10 00:38:42;;;;;;;11.53;8.50;;;;;;;;;;5005978;28;20269;-89
2023/03/10 00:41:10;;;;;;;9.33;8.33;;;;;;;;;;5008671;28;20185;-88
2023/03/10 00:43:36;;;;;;;9.37;8.27;;;;;;;;;;5018061;28;20189;-89
2023/03/10 00:46:03;;;;;;;9.00;8.07;;;;;;;;;;5010181;28;20186;-88
2023/03/10 00:48:29;;;;;;;10.27;8.00;;;;;;;;;;5008913;28;20236;-87
2023/03/10 00:50:58;;;;;;;10.83;8.33;;;;;;;;;;5013522;28;20206;-88
2023/03/10 00:53:24;;;;;;;8.43;7.63;;;;;;;;;;5008133;28;20185;-87
2023/03/10 00:56:00;;;;;;;9.00;7.83;;;;;;;;;;5006753;28;20220;-88
2023/03/10 00:58:30;;;;;;;9.20;8.20;;;;;;;;;;5007365;28;20292;-87
2023/03/10 01:00:56;;;;;;;10.33;7.87;;;;;;;;;;5012203;28;20245;-88
2023/03/10 01:03:23;;;;;;;9.67;8.07;;;;;;;;;;5010910;28;20174;-87
2023/03/10 01:05:49;;;;;;;9.00;8.00;;;;;;;;;;5004758;28;20188;-88
2023/03/10 01:08:16;;;;;;;9.13;8.13;;;;;;;;;;5006601;28;20241;-88
2023/03/10 01:10:42;;;;;;;8.80;7.90;;;;;;;;;;5006104;28;20185;-87
2023/03/10 01:13:10;;;;;;;8.70;7.47;;;;;;;;;;5009369;28;20204;-88
2023/03/10 01:15:38;;;;;;;9.37;7.50;;;;;;;;;;5015233;28;20243;-88
2023/03/10 01:18:04;;;;;;;8.77;7.87;;;;;;;;;;5010414;28;20180;-87
2023/03/10 01:20:31;;;;;;;8.47;7.57;;;;;;;;;;5006395;28;20181;-89
2023/03/10 01:22:57;;;;;;;9.00;7.90;;;;;;;;;;5005908;28;20269;-88
2023/03/10 01:25:26;;;;;;;8.60;7.70;;;;;;;;;;5005875;28;20264;-88
2023/03/10 01:27:52;;;;;;;8.57;7.67;;;;;;;;;;5004838;28;20189;-90
2023/03/10 01:30:19;;;;;;;8.50;7.60;;;;;;;;;;5008814;28;20178;-88
2023/03/10 01:32:47;;;;;;;8.27;7.47;;;;;;;;;;5005249;28;20213;-88
2023/03/10 01:35:13;;;;;;;8.67;7.77;;;;;;;;;;5006623;28;20181;-90
2023/03/10 01:37:39;;;;;;;9.90;8.03;;;;;;;;;;4990372;28;20268;-88
2023/03/10 01:40:08;;;;;;;8.50;7.50;;;;;;;;;;4988136;28;20181;-88
2023/03/10 01:42:34;;;;;;;7.90;7.10;;;;;;;;;;5006511;28;20177;-88
2023/03/10 01:45:06;;;;;;;8.83;7.80;;;;;;;;;;4990110;28;20196;-88
2023/03/10 01:47:32;;;;;;;8.40;7.50;;;;;;;;;;5002705;28;20225;-88
2023/03/10 01:49:59;;;;;;;8.93;7.93;;;;;;;;;;4985662;28;20213;-89
2023/03/10 01:52:26;;;;;;;9.03;8.13;;;;;;;;;;5014313;28;20258;-88
2023/03/10 01:54:56;;;;;;;7.93;7.13;;;;;;;;;;5014143;28;20216;-88
2023/03/10 01:57:32;;;;;;;8.80;7.90;;;;;;;;;;5012018;28;20192;-90
2023/03/10 01:59:59;;;;;;;8.00;7.20;;;;;;;;;;5013056;28;20188;-88
2023/03/10 02:02:25;;;;;;;8.80;7.73;;;;;;;;;;5010222;28;20205;-90
2023/03/10 02:04:52;;;;;;;8.70;7.80;;;;;;;;;;4995204;28;20213;-89
2023/03/10 02:07:20;;;;;;;8.90;8.00;;;;;;;;;;5014031;28;20248;-89
2023/03/10 02:09:48;;;;;;;8.73;7.83;;;;;;;;;;5014440;28;20296;-88
2023/03/10 02:12:14;;;;;;;8.77;7.87;;;;;;;;;;4998723;28;20186;-89
2023/03/10 02:14:42;;;;;;;10.33;8.57;;;;;;;;;;5002498;28;20192;-88
2023/03/10 02:17:12;;;;;;;9.97;8.40;;;;;;;;;;5013353;28;20209;-89
2023/03/10 02:19:50;;;;;;;8.77;7.87;;;;;;;;;;5013280;28;20194;-89
2023/03/10 02:22:16;;;;;;;9.57;8.57;;;;;;;;;;5013563;28;20192;-89
2023/03/10 02:24:53;;;;;;;10.13;8.37;;;;;;;;;;4997008;28;20194;-89
2023/03/10 02:27:27;;;;;;;9.73;8.50;;;;;;;;;;5013536;28;20184;-88
2023/03/10 02:29:56;;;;;;;9.73;8.47;;;;;;;;;;5013946;28;20404;-88
2023/03/10 02:32:23;;;;;;;9.80;8.80;;;;;;;;;;5013074;28;20255;-89
2023/03/10 02:34:49;;;;;;;9.70;8.70;;;;;;;;;;5012859;28;20188;-88
2023/03/10 02:37:21;;;;;;;9.93;8.70;;;;;;;;;;5013552;28;20223;-90
2023/03/10 02:39:47;;;;;;;12.37;9.03;;;;;;;;;;5012940;28;20177;-88
2023/03/10 02:42:13;;;;;;;11.03;9.20;;;;;;;;;;4996344;28;20247;-88
2023/03/10 02:44:42;;;;;;;10.80;9.60;;;;;;;;;;5012045;28;20204;-88
2023/03/10 02:47:09;;;;;;;10.53;9.23;;;;;;;;;;5012959;28;20275;-89
2023/03/10 02:49:35;;;;;;;10.77;9.37;;;;;;;;;;4995210;28;20228;-88
2023/03/10 02:52:04;;;;;;;10.33;9.10;;;;;;;;;;5013036;28;20208;-88
2023/03/10 02:54:30;;;;;;;11.53;9.97;;;;;;;;;;5013520;28;20181;-88
2023/03/10 02:56:56;;;;;;;10.63;9.33;;;;;;;;;;4996083;28;20185;-88
2023/03/10 02:59:22;;;;;;;10.87;9.07;;;;;;;;;;4993104;28;20217;-88
2023/03/10 03:01:51;;;;;;;12.03;10.13;;;;;;;;;;5012857;28;20189;-88
2023/03/10 03:04:17;;;;;;;11.87;10.00;;;;;;;;;;4996899;28;20185;-89
2023/03/10 03:06:43;;;;;;;11.60;9.37;;;;;;;;;;5029269;28;20216;-89
2023/03/10 03:09:12;;;;;;;11.10;9.57;;;;;;;;;;5002976;28;20213;-88
2023/03/10 03:11:38;;;;;;;10.77;9.57;;;;;;;;;;5007011;28;20243;-88
2023/03/10 03:14:04;;;;;;;10.80;9.30;;;;;;;;;;4996414;28;20185;-89
2023/03/10 03:16:30;;;;;;;11.50;9.20;;;;;;;;;;4995876;28;20201;-89
2023/03/10 03:18:59;;;;;;;10.80;9.03;;;;;;;;;;5011862;28;20272;-89
2023/03/10 03:21:26;;;;;;;11.70;9.70;;;;;;;;;;5012103;28;20188;-89
2023/03/10 03:23:52;;;;;;;9.87;8.57;;;;;;;;;;5012713;28;20193;-89
2023/03/10 03:26:21;;;;;;;11.43;9.20;;;;;;;;;;5012527;28;20193;-89
2023/03/10 03:28:47;;;;;;;11.60;9.77;;;;;;;;;;5018387;28;20209;-89
2023/03/10 03:31:15;;;;;;;12.50;9.37;;;;;;;;;;4986440;28;20255;-88
2023/03/10 03:33:44;;;;;;;10.83;8.70;;;;;;;;;;4983432;28;20209;-89
2023/03/10 03:36:10;;;;;;;10.40;8.57;;;;;;;;;;4986497;28;20237;-89
2023/03/10 03:38:36;;;;;;;10.47;8.57;;;;;;;;;;4985579;28;20197;-88
2023/03/10 03:41:04;;;;;;;9.10;8.20;;;;;;;;;;4995247;28;20178;-88
2023/03/10 03:43:30;;;;;;;10.03;7.83;;;;;;;;;;4981545;28;20181;-88
2023/03/10 03:45:56;;;;;;;10.70;8.30;;;;;;;;;;4982741;28;20182;-89
2023/03/10 03:48:22;;;;;;;10.33;8.30;;;;;;;;;;4997728;28;20206;-88
2023/03/10 03:50:49;;;;;;;8.70;7.77;;;;;;;;;;4986368;28;20186;-88
2023/03/10 03:53:15;;;;;;;10.33;8.20;;;;;;;;;;4987033;28;20270;-88
2023/03/10 03:55:41;;;;;;;9.50;7.87;;;;;;;;;;4987094;28;20183;-88
2023/03/10 03:58:07;;;;;;;9.93;8.07;;;;;;;;;;4987122;28;20174;-89
2023/03/10 04:00:38;;;;;;;9.10;7.30;;;;;;;;;;4986990;28;20286;-88
2023/03/10 04:03:05;;;;;;;9.60;8.17;;;;;;;;;;4987952;28;20216;-88
2023/03/10 04:05:31;;;;;;;10.63;7.77;;;;;;;;;;4985935;28;20201;-88
2023/03/10 04:07:57;;;;;;;8.93;7.67;;;;;;;;;;4987158;28;20187;-89
2023/03/10 04:10:25;;;;;;;10.70;8.00;;;;;;;;;;4985484;28;20183;-88
2023/03/10 04:12:52;;;;;;;9.43;7.93;;;;;;;;;;4984789;28;20186;-88
2023/03/10 04:15:20;;;;;;;10.10;8.03;;;;;;;;;;4989809;28;20178;-88
2023/03/10 04:17:46;;;;;;;10.73;8.27;;;;;;;;;;4987164;28;20254;-89
2023/03/10 04:20:13;;;;;;;9.97;7.87;;;;;;;;;;4988198;28;20242;-88
2023/03/10 04:22:39;;;;;;;11.50;8.57;;;;;;;;;;5003711;28;20240;-89
2023/03/10 04:25:08;;;;;;;10.13;8.30;;;;;;;;;;4985284;28;20225;-90
2023/03/10 04:27:34;;;;;;;10.50;8.73;;;;;;;;;;4994497;28;20281;-89
2023/03/10 04:30:00;;;;;;;10.03;8.53;;;;;;;;;;4988028;28;20229;-88
2023/03/10 04:32:29;;;;;;;10.13;8.77;;;;;;;;;;4987447;28;20235;-88
2023/03/10 04:34:55;;;;;;;11.07;8.40;;;;;;;;;;4984938;28;20175;-88
2023/03/10 04:37:21;;;;;;;11.20;8.77;;;;;;;;;;4994047;28;20205;-88
2023/03/10 04:39:47;;;;;;;11.30;8.60;;;;;;;;;;4995309;28;20194;-89
2023/03/10 04:42:16;;;;;;;12.10;9.17;;;;;;;;;;4994885;28;20182;-88
2023/03/10 04:44:42;;;;;;;10.63;8.27;;;;;;;;;;4992151;28;20236;-87
2023/03/10 04:47:08;;;;;;;10.43;8.10;;;;;;;;;;4989703;28;20194;-87
2023/03/10 04:49:37;;;;;;;10.60;8.07;;;;;;;;;;4988180;28;20222;-87
2023/03/10 04:52:04;;;;;;;10.77;8.03;;;;;;;;;;4988727;28;20201;-88
2023/03/10 04:54:30;;;;;;;10.67;8.53;;;;;;;;;;4985898;28;20190;-88
2023/03/10 04:56:59;;;;;;;10.07;7.40;;;;;;;;;;5003199;28;20182;-88
2023/03/10 04:59:25;;;;;;;10.07;7.33;;;;;;;;;;4985535;28;20185;-87
2023/03/10 05:01:52;;;;;;;8.47;7.23;;;;;;;;;;5003170;28;20202;-87
2023/03/10 05:04:20;;;;;;;7.47;6.07;;;;;;;;;;4976811;28;20237;-88
2023/03/10 05:06:49;;;;;;;8.87;6.97;;;;;;;;;;4987947;28;20182;-88
2023/03/10 05:09:15;;;;;;;7.57;6.67;;;;;;;;;;4990149;28;20213;-87
2023/03/10 05:11:44;;;;;;;7.37;6.07;;;;;;;;;;4979095;28;20217;-88
2023/03/10 05:14:11;;;;;;;7.20;5.87;;;;;;;;;;4992749;28;20178;-88
2023/03/10 05:16:37;;;;;;;6.83;5.53;;;;;;;;;;4979245;28;20186;-87
2023/03/10 05:19:05;;;;;;;6.33;5.23;;;;;;;;;;4989578;28;20218;-88
2023/03/10 05:21:31;;;;;;;7.23;5.30;;;;;;;;;;4992186;28;20182;-87
2023/03/10 05:23:57;;;;;;;5.23;4.40;;;;;;;;;;4978484;28;20198;-88
2023/03/10 05:26:23;;;;;;;5.03;4.40;;;;;;;;;;4989206;28;20206;-87
2023/03/10 05:28:52;;;;;;;4.97;4.23;;;;;;;;;;4983101;28;20213;-86
2023/03/10 05:31:24;;;;;;;5.37;4.77;;;;;;;;;;4988595;28;20186;-86
2023/03/10 05:33:51;;;;;;;5.97;4.90;;;;;;;;;;4983401;28;20217;-92
2023/03/10 05:36:17;;;;;;;6.33;5.00;;;;;;;;;;4993869;28;20185;-90
2023/03/10 05:38:43;;;;;;;6.17;4.73;;;;;;;;;;4974736;28;20190;-90
2023/03/10 05:41:13;;;;;;;9.03;4.53;;;;;;;;;;4995477;28;20240;-91
2023/03/10 05:43:39;;;;;;;7.30;5.40;;;;;;;;;;5011336;28;20428;-90
2023/03/10 05:46:06;;;;;;;6.80;5.33;;;;;;;;;;4991407;28;20248;-87
2023/03/10 05:48:34;;;;;;;7.87;5.63;;;;;;;;;;4993477;28;20217;-87
2023/03/10 05:51:02;;;;;;;7.77;5.30;;;;;;;;;;4979179;28;20210;-87
2023/03/10 05:53:29;;;;;;;5.50;4.90;;;;;;;;;;4975750;28;20179;-87
2023/03/10 05:55:57;;;;;;;6.83;5.07;;;;;;;;;;4993463;28;20194;-86
2023/03/10 05:58:24;;;;;;;5.70;4.60;;;;;;;;;;4991407;28;20217;-88
2023/03/10 06:00:50;;;;;;;6.13;4.80;;;;;;;;;;4993712;28;20419;-88
2023/03/10 06:03:22;;;;;;;6.40;4.50;;;;;;;;;;4999821;28;20175;-87
2023/03/10 06:05:49;;;;;;;5.63;4.53;;;;;;;;;;4992115;28;20198;-87
2023/03/10 06:08:17;;;;;;;5.53;4.60;;;;;;;;;;4988494;28;20175;-87
2023/03/10 06:10:43;;;;;;;4.87;3.80;;;;;;;;;;4975530;28;20179;-87
2023/03/10 06:13:09;;;;;;;4.20;3.40;;;;;;;;;;4983775;28;20185;-87
2023/03/10 06:15:35;;;;;;;3.90;3.50;;;;;;;;;;4992141;28;20277;-88
2023/03/10 06:18:04;;;;;;;3.67;3.27;;;;;;;;;;4994591;28;20181;-89
2023/03/10 06:20:30;;;;;;;3.73;3.20;;;;;;;;;;4976768;28;20182;-88
2023/03/10 06:22:56;;;;;;;4.30;3.77;;;;;;;;;;4986664;28;20175;-88
2023/03/10 06:25:22;;;;;;;4.20;3.53;;;;;;;;;;4987971;28;20248;-87
2023/03/10 06:27:51;;;;;;;4.03;3.40;;;;;;;;;;4994297;28;20203;-87
2023/03/10 06:30:17;;;;;;;4.37;3.63;;;;;;;;;;4994375;28;20214;-89
2023/03/10 06:32:43;;;;;;;3.90;3.50;;;;;;;;;;4993698;28;20256;-90
2023/03/10 06:35:11;;;;;;;4.33;3.60;;;;;;;;;;4994290;28;20190;-89
2023/03/10 06:37:40;;;;;;;4.60;3.60;;;;;;;;;;4995007;28;20213;-89
2023/03/10 06:40:07;;;;;;;3.77;3.37;;;;;;;;;;4994918;28;20185;-91
2023/03/10 06:42:35;;;;;;;4.27;3.80;;;;;;;;;;4994347;28;20192;-89
2023/03/10 06:45:05;;;;;;;4.33;3.93;;;;;;;;;;4994373;28;20193;-89
2023/03/10 06:47:33;;;;;;;4.03;3.63;;;;;;;;;;4991464;28;20189;-88
2023/03/10 06:50:00;;;;;;;4.20;3.67;;;;;;;;;;4975368;28;20282;-89
2023/03/10 06:52:26;;;;;;;4.57;4.07;;;;;;;;;;4975247;28;20194;-86
2023/03/10 06:54:54;;;;;;;4.30;3.90;;;;;;;;;;4981630;28;20185;-86
2023/03/10 06:57:20;;;;;;;4.73;4.10;;;;;;;;;;4993735;28;20182;-86
2023/03/10 06:59:46;;;;;;;6.17;4.07;;;;;;;;;;4994050;28;20272;-86
2023/03/10 07:02:13;;;;;;;5.10;4.50;;;;;;;;;;4993704;28;20181;-87
2023/03/10 07:04:41;;;;;;;4.97;4.20;;;;;;;;;;4991373;28;20240;-86
2023/03/10 07:07:08;;;;;;;4.73;4.17;;;;;;;;;;4993973;28;20195;-86
2023/03/10 07:09:34;;;;;;;5.70;4.43;;;;;;;;;;4993766;28;20248;-86
2023/03/10 07:12:02;;;;;;;4.67;4.27;;;;;;;;;;4977653;28;20200;-86
2023/03/10 07:14:28;;;;;;;5.00;4.50;;;;;;;;;;4973775;28;20190;-86
2023/03/10 07:16:55;;;;;;;5.07;4.53;;;;;;;;;;4993392;28;20197;-86
2023/03/10 07:19:21;;;;;;;4.50;4.10;;;;;;;;;;4993590;28;20186;-86
2023/03/10 07:21:50;;;;;;;5.93;4.37;;;;;;;;;;4993546;28;20250;-84
2023/03/10 07:24:16;;;;;;;5.20;4.70;;;;;;;;;;4991963;28;20178;-87
2023/03/10 07:26:43;;;;;;;5.47;4.97;;;;;;;;;;4993316;28;20185;-84
2023/03/10 07:29:11;;;;;;;5.63;5.03;;;;;;;;;;4993362;28;20209;-85
2023/03/10 07:31:37;;;;;;;5.53;5.00;;;;;;;;;;4994747;28;20178;-87
2023/03/10 07:34:03;;;;;;;6.60;4.80;;;;;;;;;;5016012;28;20204;-88
2023/03/10 07:36:29;;;;;;;5.53;5.03;;;;;;;;;;4996609;28;20190;-88
2023/03/10 07:38:58;;;;;;;5.60;4.77;;;;;;;;;;4997181;28;20194;-87
2023/03/10 07:41:24;;;;;;;5.43;4.93;;;;;;;;;;4996895;28;20177;-87
2023/03/10 07:43:55;;;;;;;7.17;5.37;;;;;;;;;;4996601;28;20257;-87
2023/03/10 07:46:22;;;;;;;8.17;5.80;;;;;;;;;;4996418;28;20184;-87
2023/03/10 07:48:48;;;;;;;8.90;5.57;;;;;;;;;;4996789;28;20213;-87
2023/03/10 07:51:14;;;;;;;5.50;5.00;;;;;;;;;;4998550;28;20197;-87
2023/03/10 07:53:42;;;;;;;7.17;5.70;;;;;;;;;;5001347;28;20184;-88
2023/03/10 07:56:10;;;;;;;6.30;5.50;;;;;;;;;;4999784;28;20181;-87
2023/03/10 07:58:36;;;;;;;7.43;5.43;;;;;;;;;;5000373;28;20243;-87
2023/03/10 08:01:05;;;;;;;6.27;5.67;;;;;;;;;;5001259;28;20185;-90
2023/03/10 08:03:33;;;;;;;7.40;6.10;;;;;;;;;;5010026;28;20189;-87
2023/03/10 08:06:04;;;;;;;6.73;5.70;;;;;;;;;;5010248;28;20192;-83
2023/03/10 08:08:30;;;;;;;7.00;5.67;;;;;;;;;;5011822;28;20228;-84
2023/03/10 08:11:09;;;;;;;7.20;5.50;;;;;;;;;;5005905;28;20231;-84
2023/03/10 08:13:38;;;;;;;7.20;5.47;;;;;;;;;;5012503;28;20181;-83
2023/03/10 08:16:04;;;;;;;7.10;5.43;;;;;;;;;;5018259;28;20184;-82
2023/03/10 08:18:31;;;;;;;5.20;4.60;;;;;;;;;;5017408;28;20192;-85
2023/03/10 08:20:57;;;;;;;6.10;5.10;;;;;;;;;;5014842;28;20215;-86
2023/03/10 08:23:24;;;;;;;7.53;5.23;;;;;;;;;;5012541;28;20203;-85
2023/03/10 08:25:50;;;;;;;6.37;5.40;;;;;;;;;;5013888;28;20184;-85
2023/03/10 08:28:16;;;;;;;5.60;4.97;;;;;;;;;;5001976;28;20185;-86
2023/03/10 08:30:45;;;;;;;5.67;4.90;;;;;;;;;;4996859;28;20284;-86
2023/03/10 08:33:12;;;;;;;4.90;4.50;;;;;;;;;;5011684;28;20220;-84
2023/03/10 08:35:38;;;;;;;5.97;5.03;;;;;;;;;;4999234;28;20191;-85
2023/03/10 08:38:04;;;;;;;6.00;4.80;;;;;;;;;;5002301;28;20253;-84
2023/03/10 08:40:31;;;;;;;5.60;4.63;;;;;;;;;;5016211;28;20177;-84
2023/03/10 08:42:57;;;;;;;6.30;5.37;;;;;;;;;;5000010;28;20184;-85
2023/03/10 08:45:23;;;;;;;6.40;5.37;;;;;;;;;;4999805;28;20173;-84
2023/03/10 08:47:52;;;;;;;5.90;5.30;;;;;;;;;;4999399;28;20203;-85
2023/03/10 08:50:18;;;;;;;6.00;5.07;;;;;;;;;;4999482;28;20259;-84
2023/03/10 08:52:44;;;;;;;6.57;5.37;;;;;;;;;;4999303;28;20213;-84
2023/03/10 08:55:10;;;;;;;7.37;5.50;;;;;;;;;;4999468;28;20177;-85
2023/03/10 08:57:38;;;;;;;6.03;5.17;;;;;;;;;;4999421;28;20181;-85
2023/03/10 09:00:05;;;;;;;7.73;5.60;;;;;;;;;;4999355;28;20239;-84
2023/03/10 09:02:32;;;;;;;6.20;5.60;;;;;;;;;;4999731;28;20243;-84
2023/03/10 09:05:00;;;;;;;7.40;5.27;;;;;;;;;;4999513;28;20225;-85
2023/03/10 09:07:27;;;;;;;8.50;5.60;;;;;;;;;;5004837;28;20244;-85
2023/03/10 09:09:53;;;;;;;5.93;4.83;;;;;;;;;;5015814;28;20220;-85
2023/03/10 09:12:21;;;;;;;7.27;5.13;;;;;;;;;;5018483;28;20184;-84
2023/03/10 09:14:47;;;;;;;6.27;5.17;;;;;;;;;;5002850;28;20192;-86
2023/03/10 09:17:13;;;;;;;5.57;5.00;;;;;;;;;;5015694;28;20268;-86
2023/03/10 09:19:39;;;;;;;5.47;4.97;;;;;;;;;;5013779;28;20219;-86
2023/03/10 09:22:09;;;;;;;7.07;5.07;;;;;;;;;;4998330;28;20182;-85
2023/03/10 09:24:35;;;;;;;7.67;5.33;;;;;;;;;;4998914;28;20174;-86
2023/03/10 09:27:01;;;;;;;6.13;5.50;;;;;;;;;;4998870;28;20189;-86
2023/03/10 09:29:31;;;;;;;5.57;4.93;;;;;;;;;;4998810;28;20205;-85
2023/03/10 09:31:57;;;;;;;5.73;5.00;;;;;;;;;;4997697;28;20185;-85
2023/03/10 09:34:26;;;;;;;5.80;5.20;;;;;;;;;;4998489;28;20220;-85
2023/03/10 09:36:52;;;;;;;6.80;5.40;;;;;;;;;;5000491;28;20268;-84
2023/03/10 09:39:18;;;;;;;5.93;5.27;;;;;;;;;;4998132;28;20182;-84
2023/03/10 09:42:03;;;;;;;6.77;5.20;;;;;;;;;;4997720;28;20240;-84
2023/03/10 09:44:33;;;;;;;6.03;5.43;;;;;;;;;;4998478;28;20189;-86
2023/03/10 09:47:02;;;;;;;7.23;5.30;;;;;;;;;;4997459;28;20235;-86
2023/03/10 09:49:37;;;;;;;5.50;5.00;;;;;;;;;;4998385;28;20252;-87
2023/03/10 09:52:14;;;;;;;5.80;5.00;;;;;;;;;;4998331;28;20197;-89
2023/03/10 09:54:50;;;;;;;5.50;4.60;;;;;;;;;;4999848;28;20185;-87
2023/03/10 09:57:23;;;;;;;5.80;4.77;;;;;;;;;;5014705;28;20235;-87
2023/03/10 09:59:51;;;;;;;6.03;4.90;;;;;;;;;;5014727;28;20185;-86
2023/03/10 10:02:32;;;;;;;5.33;4.83;;;;;;;;;;5014702;28;20177;-86
2023/03/10 10:05:00;;;;;;;5.13;4.63;;;;;;;;;;5014664;28;20208;-85
2023/03/10 10:07:28;;;;;;;4.97;4.47;;;;;;;;;;5014487;28;20196;-86
2023/03/10 10:10:07;;;;;;;5.13;4.50;;;;;;;;;;5014061;28;20213;-87
2023/03/10 10:12:35;;;;;;;4.60;4.20;;;;;;;;;;4999477;28;20204;-88
2023/03/10 10:15:13;;;;;;;4.20;3.80;;;;;;;;;;5014562;28;20181;-87
2023/03/10 10:18:08;;;;;;;4.40;4.00;;;;;;;;;;5017200;28;20227;-87
2023/03/10 10:20:37;;;;;;;4.90;4.40;;;;;;;;;;5000884;28;20275;-88
2023/03/10 10:23:05;;;;;;;4.87;3.93;;;;;;;;;;5016916;28;20184;-89
2023/03/10 10:25:32;;;;;;;4.57;4.17;;;;;;;;;;5017668;28;20180;-88
2023/03/10 10:28:02;;;;;;;4.47;4.07;;;;;;;;;;5016584;28;20185;-88
2023/03/10 10:30:33;;;;;;;4.70;4.20;;;;;;;;;;5016967;28;20216;-88
2023/03/10 10:33:07;;;;;;;4.67;4.17;;;;;;;;;;5016197;28;20307;-85
2023/03/10 10:35:40;;;;;;;5.00;3.93;;;;;;;;;;5017110;28;20247;-85
2023/03/10 10:38:12;;;;;;;5.83;3.80;;;;;;;;;;5016308;28;20223;-84
2023/03/10 10:40:47;;;;;;;4.50;3.90;;;;;;;;;;5017688;28;20180;-84
2023/03/10 10:43:17;;;;;;;4.00;3.57;;;;;;;;;;5017225;28;20215;-84
2023/03/10 10:45:47;;;;;;;4.57;4.07;;;;;;;;;;5017055;28;20176;-86
2023/03/10 10:48:34;;;;;;;4.00;3.43;;;;;;;;;;5017077;28;20181;-86
2023/03/10 10:51:01;;;;;;;4.20;3.90;;;;;;;;;;5016966;28;20283;-85
2023/03/10 10:53:33;;;;;;;4.27;3.87;;;;;;;;;;5000779;28;20188;-84
2023/03/10 10:56:08;;;;;;;5.20;3.97;;;;;;;;;;5016701;28;20212;-87
2023/03/10 10:58:44;;;;;;;4.60;3.90;;;;;;;;;;5016617;28;20190;-87
2023/03/10 11:01:11;;;;;;;4.53;4.00;;;;;;;;;;5016708;28;20182;-85
2023/03/10 11:03:38;;;;;;;4.40;4.00;;;;;;;;;;5016557;28;20210;-84
2023/03/10 11:06:16;;;;;;;5.97;4.20;;;;;;;;;;5016619;28;20180;-86
2023/03/10 11:08:49;;;;;;;4.80;3.90;;;;;;;;;;5016753;28;20204;-87
2023/03/10 11:11:42;;;;;;;4.90;4.50;;;;;;;;;;5016843;28;20188;-87
2023/03/10 11:14:14;;;;;;;5.63;4.30;;;;;;;;;;5013461;28;20185;-88
2023/03/10 11:17:10;;;;;;;4.50;4.10;;;;;;;;;;5016535;28;20267;-88
2023/03/10 11:19:39;;;;;;;4.50;4.10;;;;;;;;;;4947998;28;20195;-87
2023/03/10 11:22:21;;;;;;;4.97;4.40;;;;;;;;;;5016513;28;20201;-86
2023/03/10 11:25:00;;;;;;;4.80;4.40;;;;;;;;;;5012220;28;20196;-87
2023/03/10 11:27:32;;;;;;;4.80;4.20;;;;;;;;;;5013077;28;20207;-87
2023/03/10 11:29:59;;;;;;;5.07;4.67;;;;;;;;;;5013195;28;20205;-85
2023/03/10 11:32:28;;;;;;;4.57;4.17;;;;;;;;;;5012885;28;20228;-85
2023/03/10 11:34:54;;;;;;;4.13;3.73;;;;;;;;;;5011437;28;20366;-85
2023/03/10 11:37:40;;;;;;;5.03;4.10;;;;;;;;;;5012925;28;20184;-86
2023/03/10 11:40:25;;;;;;;4.03;3.47;;;;;;;;;;5022141;28;20191;-85
2023/03/10 11:42:56;;;;;;;4.07;3.67;;;;;;;;;;5016315;28;20181;-86
2023/03/10 11:45:33;;;;;;;5.20;3.77;;;;;;;;;;5016031;28;20215;-85
2023/03/10 11:48:21;;;;;;;4.67;3.80;;;;;;;;;;5015991;28;20177;-83
2023/03/10 11:51:07;;;;;;;4.30;3.77;;;;;;;;;;5016271;28;20192;-85
2023/03/10 11:53:57;;;;;;;5.17;3.60;;;;;;;;;;5016106;28;20180;-85
2023/03/10 11:56:35;;;;;;;4.10;3.70;;;;;;;;;;5016264;28;20176;-85
2023/03/10 11:59:12;;;;;;;4.70;3.47;;;;;;;;;;5016367;28;20180;-86
2023/03/10 12:01:45;;;;;;;5.53;3.27;;;;;;;;;;5016089;28;20242;-86
2023/03/10 12:04:44;;;;;;;3.50;3.20;;;;;;;;;;5016179;28;20389;-85
2023/03/10 12:10:33;;;;;;;4.77;3.00;;;;;;;;;;5027013;28;20228;-85
2023/03/10 12:13:27;;;;;;;;;;;;;;;;;;;;;
2023/03/10 12:16:04;;;;;;;3.33;2.90;;;;;;;;;;5040690;28;20244;-86
2023/03/10 12:19:21;;;;;;;;;;;;;;;;;;;;;
2023/03/10 12:21:59;;;;;;;3.37;2.53;;;;;;;;;;5043994;28;20200;-86
2023/03/10 12:25:01;;;;;;;2.87;2.33;;;;;;;;;;5016936;28;20193;-87
2023/03/10 12:30:47;;;;;;;2.83;2.57;;;;;;;;;;5036883;28;20220;-86
2023/03/10 12:33:48;;;;;;;3.17;2.87;;;;;;;;;;5018403;28;20213;-86
2023/03/10 12:36:50;;;;;;;2.80;2.60;;;;;;;;;;5019377;28;20196;-87
2023/03/10 12:45:39;;;;;;;6.57;2.80;;;;;;;;;;5014814;28;20200;-87
2023/03/10 12:48:21;;;;;;;3.77;3.03;;;;;;;;;;5000513;28;20213;-87
2023/03/10 12:57:01;;;;;;;3.50;3.20;;;;;;;;;;4893254;29;20319;-87
2023/03/10 12:59:47;;;;;;;3.53;3.23;;;;;;;;;;4940428;29;20199;-86
2023/03/10 13:02:36;;;;;;;4.00;2.90;;;;;;;;;;4939854;29;20186;-87
2023/03/10 13:05:06;;;;;;;3.03;2.77;;;;;;;;;;4938012;28;20216;-85
2023/03/10 13:07:38;;;;;;;3.20;2.90;;;;;;;;;;5015584;28;20181;-86
2023/03/10 13:10:10;;;;;;;3.30;3.00;;;;;;;;;;5015511;28;20207;-85
2023/03/10 13:12:49;;;;;;;2.93;2.67;;;;;;;;;;5015907;28;20173;-85
2023/03/10 13:15:34;;;;;;;3.23;2.93;;;;;;;;;;5015782;28;20174;-85
2023/03/10 13:18:38;;;;;;;4.10;3.50;;;;;;;;;;5015398;28;20181;-85
2023/03/10 13:21:23;;;;;;;4.10;3.70;;;;;;;;;;4923837;28;20179;-85
2023/03/10 13:23:57;;;;;;;4.30;3.90;;;;;;;;;;5014270;28;20264;-85
2023/03/10 13:26:25;;;;;;;4.17;3.70;;;;;;;;;;5015362;28;20179;-85
2023/03/10 13:29:22;;;;;;;;;;;;;;;;;;;;;
2023/03/10 13:31:54;;;;;;;5.57;4.93;;;;;;;;;;5036297;28;20172;-85
2023/03/10 13:34:22;;;;;;;5.73;5.10;;;;;;;;;;5018271;28;20240;-84
2023/03/10 13:40:08;;;;;;;6.27;5.67;;;;;;;;;;5027615;28;20279;-87
2023/03/10 13:43:16;;;;;;;6.10;5.47;;;;;;;;;;5017646;28;20200;-87
2023/03/10 13:46:14;;;;;;;;;;;;;;;;;;;;;
2023/03/10 13:49:29;;;;;;;;;;;;;;;;;;;;;
2023/03/10 13:52:32;;;;;;;;;;;;;;;;;;;;;
2023/03/10 13:55:56;;;;;;;;;;;;;;;;;;;;;
2023/03/10 13:59:13;;;;;;;;;;;;;;;;;;;;;
2023/03/10 14:01:56;;;;;;;;;;;;;;;;;;;;;
2023/03/10 14:05:11;;;;;;;;;;;;;;;;;;;;;
2023/03/10 14:07:48;;;;;;;;;;;;;;;;;;;;;
2023/03/10 14:10:21;;;;;;;4.50;4.10;;;;;;;;;;4959599;28;20217;-87
2023/03/10 14:13:14;;;;;;;4.73;4.33;;;;;;;;;;5017981;28;20218;-88
2023/03/10 14:16:08;;;;;;;5.17;4.67;;;;;;;;;;4983411;28;20181;-86
2023/03/10 14:18:40;;;;;;;4.80;4.30;;;;;;;;;;5017620;28;20177;-86
2023/03/10 14:21:41;;;;;;;5.13;4.63;;;;;;;;;;5015642;28;20204;-87
2023/03/10 14:24:32;;;;;;;;;;;;;;;;;;;;;
2023/03/10 14:27:19;;;;;;;;;;;;;;;;;;;;;
2023/03/10 14:29:54;;;;;;;4.97;4.47;;;;;;;;;;5014973;28;20201;-87
2023/03/10 14:32:50;;;;;;;;;;;;;;;;;;;;;
2023/03/10 14:41:00;;;;;;;5.77;5.17;;;;;;;;;;5014322;28;20191;-86
2023/03/10 14:43:27;;;;;;;5.57;5.07;;;;;;;;;;4997289;28;20174;-87
2023/03/10 14:45:59;;;;;;;7.07;5.47;;;;;;;;;;4997359;28;20173;-87
2023/03/10 14:48:27;;;;;;;5.63;4.73;;;;;;;;;;4997189;28;20173;-87
2023/03/10 14:50:56;;;;;;;5.10;4.60;;;;;;;;;;4997237;28;20201;-87
2023/03/10 14:53:23;;;;;;;4.43;4.03;;;;;;;;;;4997180;28;20201;-87
2023/03/10 14:55:50;;;;;;;4.60;4.20;;;;;;;;;;5007088;28;20181;-87
2023/03/10 14:58:21;;;;;;;4.77;4.30;;;;;;;;;;5017056;28;20180;-87
2023/03/10 15:00:47;;;;;;;4.17;3.77;;;;;;;;;;5016739;28;20184;-87
2023/03/10 15:03:17;;;;;;;5.13;4.63;;;;;;;;;;5016806;28;20184;-87
2023/03/10 15:05:45;;;;;;;4.87;4.37;;;;;;;;;;5016530;28;20191;-86
2023/03/10 15:08:11;;;;;;;5.30;4.80;;;;;;;;;;5016771;28;20191;-87
2023/03/10 15:10:41;;;;;;;5.00;4.50;;;;;;;;;;5016885;28;20208;-87
2023/03/10 15:13:12;;;;;;;5.23;4.40;;;;;;;;;;5012484;28;20181;-87
2023/03/10 15:15:40;;;;;;;5.13;4.60;;;;;;;;;;4997016;28;20241;-87
2023/03/10 15:18:06;;;;;;;5.23;4.63;;;;;;;;;;4996773;28;20174;-88
2023/03/10 15:20:32;;;;;;;5.03;4.53;;;;;;;;;;4996667;28;20177;-87
2023/03/10 15:23:01;;;;;;;5.10;4.60;;;;;;;;;;4996809;28;20192;-87
2023/03/10 15:25:27;;;;;;;4.80;4.30;;;;;;;;;;4996665;28;20449;-86
2023/03/10 15:27:53;;;;;;;4.47;4.07;;;;;;;;;;4996972;28;20232;-87
2023/03/10 15:30:21;;;;;;;6.60;4.40;;;;;;;;;;4998766;28;20279;-87
2023/03/10 15:32:47;;;;;;;4.83;4.33;;;;;;;;;;5016204;28;20248;-87
2023/03/10 15:35:15;;;;;;;5.37;4.50;;;;;;;;;;4999989;28;20275;-87
2023/03/10 15:37:43;;;;;;;5.83;4.80;;;;;;;;;;5016327;28;20222;-87
2023/03/10 15:40:12;;;;;;;5.93;4.70;;;;;;;;;;5016082;28;20180;-87
2023/03/10 15:42:39;;;;;;;5.70;5.10;;;;;;;;;;5016146;28;20184;-86
2023/03/10 15:45:07;;;;;;;7.43;5.80;;;;;;;;;;5016307;28;20251;-87